Time;durP1;ratioP1;P1;durP2;ratioP2;P2;SDS_P1;SDS_P2;PMS_P1;PMS_P2;Temp;Humidity;BMP_temperature;BMP_pressure;BME280_temperature;BME280_humidity;BME280_pressure;Samples;Min_cycle;Max_cycle;Signal;HPM_P1;HPM_P2
2023/06/11 00:02:02;;;;;;;0.50;0.50;;;;;;;7.76;52.47;100332.97;5072848;28;20056;-78
2023/06/11 00:04:34;;;;;;;0.50;0.50;;;;;;;7.71;52.47;100323.84;5090501;28;20097;-79
2023/06/11 00:07:02;;;;;;;0.50;0.50;;;;;;;7.61;52.49;100302.69;5056559;28;20078;-79
2023/06/11 00:09:29;;;;;;;0.50;0.50;;;;;;;7.59;52.64;100307.41;5070431;28;20044;-80
2023/06/11 00:11:56;;;;;;;0.50;0.50;;;;;;;7.65;52.82;100317.41;5070268;28;20113;-78
2023/06/11 00:14:23;;;;;;;0.50;0.50;;;;;;;7.71;52.93;100335.44;5083973;28;20127;-79
2023/06/11 00:16:56;;;;;;;0.50;0.50;;;;;;;7.59;52.88;100326.22;5088955;28;20044;-79
2023/06/11 00:19:28;;;;;;;0.50;0.50;;;;;;;7.53;53.31;100322.44;5089167;28;20052;-79
2023/06/11 00:21:58;;;;;;;0.57;0.57;;;;;;;7.53;53.04;100321.63;5090308;28;20644;-78
2023/06/11 00:24:26;;;;;;;0.60;0.60;;;;;;;7.44;53.23;100309.34;5090288;28;20048;-80
2023/06/11 00:26:53;;;;;;;0.50;0.50;;;;;;;7.64;53.08;100339.06;5090024;28;20138;-79
2023/06/11 00:29:21;;;;;;;0.50;0.50;;;;;;;7.67;53.08;100347.59;5090789;28;20048;-79
2023/06/11 00:31:48;;;;;;;0.60;0.60;;;;;;;7.50;52.94;100314.78;5090526;28;20142;-80
2023/06/11 00:34:15;;;;;;;0.50;0.50;;;;;;;7.55;53.17;100324.97;5087483;28;20048;-79
2023/06/11 00:36:45;;;;;;;0.60;0.60;;;;;;;7.60;53.09;100341.34;5084129;28;20052;-78
2023/06/11 00:39:15;;;;;;;0.50;0.50;;;;;;;7.53;53.33;100335.88;5090227;28;20584;-79
2023/06/11 00:41:48;;;;;;;0.60;0.60;;;;;;;7.48;53.24;100324.88;5072238;28;20052;-80
2023/06/11 00:44:17;;;;;;;0.50;0.50;;;;;;;7.50;53.16;100338.97;5090133;28;20395;-79
2023/06/11 00:46:47;;;;;;;0.60;0.60;;;;;;;7.54;53.36;100342.09;5089366;28;20051;-79
2023/06/11 00:49:14;;;;;;;0.60;0.60;;;;;;;7.51;52.96;100340.59;5090145;28;20044;-79
2023/06/11 00:51:44;;;;;;;0.60;0.60;;;;;;;7.51;53.39;100340.59;5073956;28;20052;-79
2023/06/11 00:54:13;;;;;;;0.60;0.60;;;;;;;7.44;53.77;100336.19;5094008;28;20457;-79
2023/06/11 00:56:41;;;;;;;0.55;0.55;;;;;;;7.49;54.03;100352.56;5094292;28;20048;-79
2023/06/11 00:59:08;;;;;;;0.60;0.60;;;;;;;7.47;53.80;100351.91;5075835;28;20052;-80
2023/06/11 01:01:41;;;;;;;0.60;0.60;;;;;;;7.29;54.23;100349.66;5074158;28;20136;-78
2023/06/11 01:04:32;;;;;;;0.60;0.60;;;;;;;7.31;54.43;100348.47;5055877;28;20064;-79
2023/06/11 01:07:01;;;;;;;0.60;0.60;;;;;;;7.27;54.56;100354.44;5073640;28;20074;-79
2023/06/11 01:09:29;;;;;;;0.60;0.60;;;;;;;7.20;54.73;100348.16;5059646;28;20044;-79
2023/06/11 01:11:57;;;;;;;0.60;0.60;;;;;;;7.24;54.56;100347.59;5092598;28;20044;-79
2023/06/11 01:14:25;;;;;;;0.60;0.60;;;;;;;7.34;55.03;100376.78;5075822;28;20048;-79
2023/06/11 01:17:02;;;;;;;0.60;0.60;;;;;;;7.35;54.95;100367.72;5093710;28;20066;-80
2023/06/11 01:19:43;;;;;;;0.60;0.60;;;;;;;7.41;54.92;100368.81;5076782;28;20040;-79
2023/06/11 01:22:16;;;;;;;0.60;0.60;;;;;;;7.42;54.87;100365.09;5092606;28;20569;-79
2023/06/11 01:25:17;;;;;;;0.70;0.70;;;;;;;7.43;55.12;100362.22;5059403;28;20044;-79
2023/06/11 01:27:58;;;;;;;0.50;0.50;;;;;;;7.44;55.13;100365.75;5078421;28;20048;-79
2023/06/11 01:30:28;;;;;;;0.50;0.50;;;;;;;7.37;55.35;100352.25;5075656;28;20050;-79
2023/06/11 01:32:57;;;;;;;0.60;0.60;;;;;;;7.35;55.08;100347.06;5075732;28;20562;-78
2023/06/11 01:35:29;;;;;;;0.60;0.60;;;;;;;7.37;55.27;100349.56;5059368;28;20044;-79
2023/06/11 01:37:57;;;;;;;0.60;0.60;;;;;;;7.31;55.49;100350.31;5093281;28;20461;-79
2023/06/11 01:40:33;;;;;;;0.60;0.60;;;;;;;7.46;55.61;100379.81;5075612;28;20051;-78
2023/06/11 01:43:05;;;;;;;0.55;0.55;;;;;;;7.36;55.48;100364.84;5075053;28;20044;-79
2023/06/11 01:45:32;;;;;;;0.60;0.60;;;;;;;7.46;55.65;100383.34;5093235;28;20097;-79
2023/06/11 01:48:05;;;;;;;0.60;0.60;;;;;;;7.42;55.54;100378.53;5074912;28;20052;-79
2023/06/11 01:50:33;;;;;;;0.60;0.60;;;;;;;7.46;55.62;100382.50;5058920;28;20562;-79
2023/06/11 01:53:01;;;;;;;0.60;0.60;;;;;;;7.50;55.74;100391.84;5058574;28;20040;-79
2023/06/11 01:55:30;;;;;;;0.60;0.60;;;;;;;7.35;55.31;100370.41;5075126;28;20510;-80
2023/06/11 01:58:00;;;;;;;0.60;0.60;;;;;;;7.41;55.57;100379.56;5071823;28;20084;-79
2023/06/11 02:00:28;;;;;;;0.60;0.60;;;;;;;7.32;55.57;100374.31;5055077;28;20526;-78
2023/06/11 02:02:55;;;;;;;0.60;0.60;;;;;;;7.51;55.60;100390.81;5054203;28;20040;-79
2023/06/11 02:05:22;;;;;;;0.60;0.60;;;;;;;7.55;55.57;100400.19;5073800;28;20057;-79
2023/06/11 02:07:50;;;;;;;0.60;0.60;;;;;;;7.64;55.68;100400.88;5091839;28;20044;-80
2023/06/11 02:10:18;;;;;;;0.60;0.60;;;;;;;7.68;55.47;100404.84;5074979;28;20138;-79
2023/06/11 02:12:45;;;;;;;0.60;0.60;;;;;;;7.53;55.16;100380.72;5092963;28;20044;-78
2023/06/11 02:15:13;;;;;;;0.60;0.60;;;;;;;7.63;55.01;100367.81;5091677;28;20687;-80
2023/06/11 02:17:41;;;;;;;0.60;0.60;;;;;;;7.73;54.95;100380.94;5075059;28;20511;-80
2023/06/11 02:20:28;;;;;;;0.50;0.50;;;;;;;7.79;54.77;100380.13;5064052;28;20048;-79
2023/06/11 02:22:55;;;;;;;0.60;0.60;;;;;;;7.73;54.67;100371.00;5092593;28;20426;-78
2023/06/11 02:25:22;;;;;;;0.60;0.60;;;;;;;7.98;54.82;100402.88;5075457;28;20052;-79
2023/06/11 02:27:52;;;;;;;0.55;0.55;;;;;;;8.02;54.80;100404.13;5074822;28;20044;-79
2023/06/11 02:30:25;;;;;;;0.60;0.60;;;;;;;8.06;54.88;100413.47;5074906;28;20127;-79
2023/06/11 02:32:53;;;;;;;0.60;0.60;;;;;;;7.98;54.88;100386.75;5074735;28;20052;-79
2023/06/11 02:35:24;;;;;;;0.50;0.50;;;;;;;7.94;54.83;100393.50;5058610;28;20054;-79
2023/06/11 02:37:52;;;;;;;0.52;0.52;;;;;;;8.01;54.77;100397.09;5074359;28;20048;-79
2023/06/11 02:40:20;;;;;;;0.60;0.60;;;;;;;8.07;54.67;100396.31;5092671;28;20135;-79
2023/06/11 02:42:48;;;;;;;0.50;0.50;;;;;;;8.25;54.81;100425.41;5092361;28;20060;-80
2023/06/11 02:45:15;;;;;;;0.50;0.50;;;;;;;8.18;54.64;100406.56;5091924;28;20107;-79
2023/06/11 02:47:47;;;;;;;0.55;0.55;;;;;;;8.35;54.01;100409.75;5092794;28;20127;-80
2023/06/11 02:50:20;;;;;;;0.50;0.50;;;;;;;8.41;54.39;100411.72;5092152;28;20040;-79
2023/06/11 02:52:48;;;;;;;0.60;0.60;;;;;;;8.42;54.14;100418.75;5092348;28;20514;-78
2023/06/11 02:55:15;;;;;;;0.50;0.50;;;;;;;8.46;54.15;100414.66;5073720;28;20602;-79
2023/06/11 02:57:43;;;;;;;0.60;0.60;;;;;;;8.65;54.16;100426.56;5073995;28;20044;-80
2023/06/11 03:00:17;;;;;;;0.60;0.60;;;;;;;8.77;54.12;100426.03;5073685;28;20066;-80
2023/06/11 03:02:45;;;;;;;0.60;0.60;;;;;;;8.78;53.95;100427.69;5083439;28;20048;-78
2023/06/11 03:05:17;;;;;;;0.60;0.60;;;;;;;8.65;53.51;100407.72;5056696;28;20513;-80
2023/06/11 03:07:44;;;;;;;0.60;0.60;;;;;;;8.94;53.80;100430.06;5073997;28;20484;-79
2023/06/11 03:10:13;;;;;;;0.60;0.60;;;;;;;8.99;53.66;100438.38;5057457;28;20063;-79
2023/06/11 03:12:40;;;;;;;0.60;0.60;;;;;;;8.97;52.96;100412.69;5091758;28;20097;-79
2023/06/11 03:15:09;;;;;;;0.60;0.60;;;;;;;9.10;53.09;100428.91;5072016;28;20083;-79
2023/06/11 03:17:36;;;;;;;0.57;0.57;;;;;;;9.17;52.70;100431.63;5073052;28;20097;-78
2023/06/11 03:20:06;;;;;;;0.60;0.60;;;;;;;9.39;52.54;100452.00;5091320;28;20759;-77
2023/06/11 03:22:33;;;;;;;0.55;0.55;;;;;;;9.41;52.28;100436.47;5057263;28;20044;-80
2023/06/11 03:25:01;;;;;;;0.60;0.60;;;;;;;9.33;52.08;100421.31;5073241;28;20048;-79
2023/06/11 03:27:33;;;;;;;0.60;0.60;;;;;;;9.60;51.87;100455.63;5090318;28;20578;-78
2023/06/11 03:30:00;;;;;;;0.60;0.60;;;;;;;9.70;51.50;100456.91;5056539;28;20052;-78
2023/06/11 03:32:31;;;;;;;0.60;0.60;;;;;;;9.71;51.36;100444.25;5057701;28;20074;-79
2023/06/11 03:34:58;;;;;;;0.60;0.60;;;;;;;9.65;51.02;100432.41;5072716;28;20051;-79
2023/06/11 03:37:26;;;;;;;0.60;0.60;;;;;;;9.80;50.75;100452.97;5072604;28;20067;-80
2023/06/11 03:39:57;;;;;;;0.60;0.60;;;;;;;9.90;50.65;100448.84;5072672;28;20457;-79
2023/06/11 03:42:25;;;;;;;0.60;0.60;;;;;;;10.03;50.29;100447.22;5072837;28;20528;-78
2023/06/11 03:44:53;;;;;;;0.50;0.50;;;;;;;10.18;50.09;100458.66;5056681;28;20152;-80
2023/06/11 03:47:24;;;;;;;0.60;0.60;;;;;;;10.07;49.50;100440.34;5072902;28;20048;-80
2023/06/11 03:49:51;;;;;;;0.50;0.50;;;;;;;10.15;49.27;100446.41;5072870;28;20485;-79
2023/06/11 03:52:19;;;;;;;0.57;0.57;;;;;;;10.22;48.68;100453.66;5070768;28;20048;-78
2023/06/11 03:54:47;;;;;;;0.60;0.60;;;;;;;10.27;48.49;100467.34;5056083;28;20085;-79
2023/06/11 03:57:17;;;;;;;0.50;0.50;;;;;;;10.15;48.26;100443.69;5087458;28;20083;-78
2023/06/11 03:59:47;;;;;;;0.60;0.60;;;;;;;10.29;48.47;100462.63;5072430;28;20502;-79
2023/06/11 04:02:15;;;;;;;0.60;0.60;;;;;;;10.33;48.06;100453.91;5068637;28;20045;-78
2023/06/11 04:04:42;;;;;;;0.50;0.50;;;;;;;10.29;47.60;100436.47;5052955;28;20044;-80
2023/06/11 04:07:10;;;;;;;0.60;0.60;;;;;;;10.30;47.38;100435.41;5072324;28;20109;-79
2023/06/11 04:09:39;;;;;;;0.65;0.65;;;;;;;10.57;47.18;100447.03;5072098;28;20119;-79
2023/06/11 04:12:07;;;;;;;0.60;0.60;;;;;;;10.46;46.79;100422.53;5072300;28;20135;-78
2023/06/11 04:14:35;;;;;;;0.50;0.50;;;;;;;10.65;46.71;100447.84;5056081;28;20099;-80
2023/06/11 04:17:03;;;;;;;0.60;0.60;;;;;;;10.62;46.44;100428.34;5072226;28;20056;-79
2023/06/11 04:19:31;;;;;;;0.60;0.60;;;;;;;10.72;46.21;100441.41;5089444;28;20568;-79
2023/06/11 04:21:58;;;;;;;0.60;0.60;;;;;;;10.73;46.17;100436.81;5056540;28;20059;-80
2023/06/11 04:24:25;;;;;;;0.60;0.60;;;;;;;10.78;45.74;100432.44;5071919;28;20054;-79
2023/06/11 04:26:53;;;;;;;0.60;0.60;;;;;;;10.87;45.24;100427.66;5089680;28;20044;-79
2023/06/11 04:29:29;;;;;;;0.50;0.50;;;;;;;10.84;44.96;100423.53;5069117;28;20047;-80
2023/06/11 04:32:01;;;;;;;0.60;0.60;;;;;;;10.91;45.32;100444.28;5071410;28;20051;-79
2023/06/11 04:34:30;;;;;;;0.57;0.57;;;;;;;10.97;45.34;100456.94;5070379;28;20072;-79
2023/06/11 04:37:04;;;;;;;0.50;0.50;;;;;;;10.92;45.39;100416.22;5089457;28;20585;-79
2023/06/11 04:39:52;;;;;;;0.50;0.50;;;;;;;11.02;44.87;100425.53;5061906;28;20066;-80
2023/06/11 04:42:20;;;;;;;0.60;0.60;;;;;;;11.18;44.29;100448.56;5066781;28;20051;-80
2023/06/11 04:44:52;;;;;;;0.60;0.60;;;;;;;11.11;44.07;100426.13;5068689;28;20113;-79
2023/06/11 04:47:22;;;;;;;0.52;0.52;;;;;;;11.08;43.48;100415.75;5072112;28;20479;-79
2023/06/11 04:49:54;;;;;;;0.50;0.50;;;;;;;11.30;43.20;100437.91;5090162;28;20469;-78
2023/06/11 04:52:24;;;;;;;0.50;0.50;;;;;;;11.44;43.24;100441.38;5072160;28;20046;-77
2023/06/11 04:54:52;;;;;;;0.52;0.52;;;;;;;11.62;43.16;100457.75;5071913;28;20048;-80
2023/06/11 04:57:23;;;;;;;0.60;0.60;;;;;;;11.67;42.52;100457.06;5066050;28;20059;-79
2023/06/11 04:59:54;;;;;;;0.60;0.60;;;;;;;11.43;42.70;100431.63;4719062;28;10000373;-80
2023/06/11 05:02:21;;;;;;;0.60;0.60;;;;;;;11.61;42.40;100433.59;5082541;28;20457;-80
2023/06/11 05:04:53;;;;;;;0.57;0.57;;;;;;;11.77;41.69;100460.13;5083246;28;20134;-80
2023/06/11 05:07:25;;;;;;;0.50;0.50;;;;;;;11.56;41.81;100428.84;5056804;28;20106;-78
2023/06/11 05:09:55;;;;;;;0.60;0.60;;;;;;;11.65;41.80;100443.78;5064163;28;20051;-79
2023/06/11 05:12:23;;;;;;;0.50;0.50;;;;;;;11.87;41.53;100460.50;5081309;28;20093;-79
2023/06/11 05:14:55;;;;;;;0.60;0.60;;;;;;;11.94;41.41;100463.19;5082865;28;20457;-79
2023/06/11 05:17:24;;;;;;;0.50;0.50;;;;;;;11.95;40.59;100437.81;5066619;28;20044;-79
2023/06/11 05:19:51;;;;;;;0.50;0.50;;;;;;;12.10;40.20;100457.28;5085584;28;20423;-77
2023/06/11 05:22:23;;;;;;;0.50;0.50;;;;;;;12.02;39.43;100445.88;5068037;28;20616;-79
2023/06/11 05:24:53;;;;;;;0.57;0.57;;;;;;;12.03;39.33;100456.47;5068273;28;20140;-80
2023/06/11 05:27:23;;;;;;;0.50;0.50;;;;;;;12.11;38.82;100452.69;5068354;28;20048;-80
2023/06/11 05:29:53;;;;;;;0.60;0.60;;;;;;;12.14;38.90;100449.53;5067929;28;20048;-80
2023/06/11 05:32:24;;;;;;;0.60;0.60;;;;;;;12.23;39.15;100456.34;5064269;28;20426;-80
2023/06/11 05:34:51;;;;;;;0.60;0.60;;;;;;;12.24;38.62;100459.88;5064281;28;20053;-81
2023/06/11 05:37:24;;;;;;;0.50;0.50;;;;;;;12.14;38.71;100444.13;5066731;28;20772;-81
2023/06/11 05:39:52;;;;;;;0.50;0.50;;;;;;;12.24;39.00;100427.38;5086139;28;20071;-80
2023/06/11 05:42:22;;;;;;;0.50;0.50;;;;;;;12.44;37.98;100460.53;5064327;28;20040;-82
2023/06/11 05:44:53;;;;;;;0.50;0.50;;;;;;;12.28;37.49;100420.47;5086519;28;20074;-81
2023/06/11 05:47:24;;;;;;;0.50;0.50;;;;;;;12.46;37.19;100441.38;5088943;28;20052;-82
2023/06/11 05:49:51;;;;;;;0.60;0.60;;;;;;;12.41;38.28;100450.16;5069580;28;20047;-81
2023/06/11 05:52:22;;;;;;;0.50;0.50;;;;;;;12.54;37.50;100452.75;5051482;28;20054;-80
2023/06/11 05:54:50;;;;;;;0.57;0.57;;;;;;;12.63;38.48;100428.06;5080807;28;20048;-81
2023/06/11 05:57:22;;;;;;;0.50;0.50;;;;;;;12.64;37.13;100433.28;5068450;28;20155;-81
2023/06/11 05:59:52;;;;;;;0.43;0.43;;;;;;;12.71;37.08;100427.78;5061591;28;20060;-81
2023/06/11 06:02:20;;;;;;;0.50;0.50;;;;;;;12.78;35.86;100450.22;5043176;28;20051;-77
2023/06/11 06:04:51;;;;;;;0.50;0.50;;;;;;;12.80;35.72;100453.53;5070041;28;20143;-79
2023/06/11 06:07:20;;;;;;;0.60;0.60;;;;;;;12.87;35.98;100438.03;5054285;28;20094;-80
2023/06/11 06:09:52;;;;;;;0.55;0.55;;;;;;;12.94;35.15;100454.25;5072889;28;20044;-79
2023/06/11 06:12:19;;;;;;;0.60;0.60;;;;;;;12.99;34.95;100447.09;5091521;28;20048;-79
2023/06/11 06:14:47;;;;;;;0.50;0.50;;;;;;;12.80;33.94;100423.72;5087395;28;20075;-77
2023/06/11 06:17:17;;;;;;;0.50;0.50;;;;;;;12.93;33.92;100433.59;5073190;28;20082;-80
2023/06/11 06:19:51;;;;;;;0.50;0.50;;;;;;;12.96;33.96;100415.03;5070302;28;20056;-80
2023/06/11 06:22:19;;;;;;;0.50;0.50;;;;;;;13.05;33.72;100445.34;5081944;28;20054;-81
2023/06/11 06:24:46;;;;;;;0.50;0.50;;;;;;;13.06;33.28;100430.75;5078771;28;20048;-80
2023/06/11 06:27:13;;;;;;;0.50;0.50;;;;;;;13.00;33.08;100410.78;5059854;28;20048;-79
2023/06/11 06:29:44;;;;;;;0.40;0.40;;;;;;;13.17;33.69;100411.03;5092258;28;20047;-81
2023/06/11 06:32:14;;;;;;;0.50;0.50;;;;;;;13.09;33.54;100402.34;5077605;28;20074;-81
2023/06/11 06:34:41;;;;;;;0.50;0.50;;;;;;;13.21;33.77;100416.81;5056219;28;20542;-81
2023/06/11 06:37:11;;;;;;;0.50;0.50;;;;;;;13.40;33.95;100431.22;5090187;28;20502;-81
2023/06/11 06:39:42;;;;;;;0.50;0.50;;;;;;;13.51;33.53;100440.44;5067288;28;20101;-82
2023/06/11 06:42:10;;;;;;;0.50;0.50;;;;;;;13.35;34.78;100418.34;5072100;28;20048;-81
2023/06/11 06:44:41;;;;;;;0.50;0.50;;;;;;;13.51;33.79;100437.75;5081882;28;20175;-83
2023/06/11 06:47:08;;;;;;;0.50;0.50;;;;;;;13.48;33.52;100419.22;5090457;28;20044;-83
2023/06/11 06:49:39;;;;;;;0.40;0.40;;;;;;;13.57;33.42;100415.97;5073732;28;20079;-80
2023/06/11 06:52:11;;;;;;;0.50;0.50;;;;;;;13.50;33.65;100422.53;5090299;28;20047;-81
2023/06/11 06:54:39;;;;;;;0.50;0.50;;;;;;;13.51;32.84;100397.06;5057450;28;20056;-81
2023/06/11 06:57:17;;;;;;;0.50;0.50;;;;;;;13.59;33.32;100411.13;5073176;28;20044;-82
2023/06/11 06:59:45;;;;;;;0.55;0.55;;;;;;;13.75;33.18;100419.66;5073786;28;20051;-82
2023/06/11 07:02:15;;;;;;;0.50;0.50;;;;;;;13.74;33.17;100420.72;5090394;28;20071;-81
2023/06/11 07:04:43;;;;;;;0.50;0.50;;;;;;;13.88;33.22;100433.06;5073274;28;20126;-81
2023/06/11 07:07:10;;;;;;;0.50;0.50;;;;;;;13.83;32.85;100405.78;5071703;28;20040;-80
2023/06/11 07:09:37;;;;;;;0.50;0.50;;;;;;;13.85;32.77;100412.63;5069903;28;20048;-81
2023/06/11 07:12:06;;;;;;;0.50;0.50;;;;;;;14.04;32.70;100431.56;5070847;28;20079;-81
2023/06/11 07:14:34;;;;;;;0.50;0.50;;;;;;;14.14;32.93;100448.09;5057329;28;20055;-82
2023/06/11 07:17:03;;;;;;;0.50;0.50;;;;;;;14.13;32.74;100429.31;5064677;28;20048;-82
2023/06/11 07:19:30;;;;;;;0.50;0.50;;;;;;;14.26;32.40;100440.00;5073358;28;20040;-83
2023/06/11 07:21:57;;;;;;;0.50;0.50;;;;;;;14.36;32.15;100445.66;5072973;28;20043;-82
2023/06/11 07:24:25;;;;;;;0.50;0.50;;;;;;;14.34;32.08;100422.53;5057129;28;20056;-82
2023/06/11 07:26:52;;;;;;;0.50;0.50;;;;;;;14.39;31.62;100423.47;5037837;28;20097;-81
2023/06/11 07:29:20;;;;;;;0.50;0.50;;;;;;;14.58;32.44;100435.06;5072771;28;20345;-83
2023/06/11 07:31:48;;;;;;;0.50;0.50;;;;;;;14.60;32.02;100435.66;5073421;28;20048;-81
2023/06/11 07:34:16;;;;;;;0.50;0.50;;;;;;;14.68;31.63;100419.00;5087043;28;20545;-82
2023/06/11 07:36:43;;;;;;;0.50;0.50;;;;;;;14.72;31.53;100428.34;5072587;28;20558;-82
2023/06/11 07:39:21;;;;;;;0.50;0.50;;;;;;;14.69;31.45;100404.38;5076115;28;20524;-81
2023/06/11 07:41:48;;;;;;;0.50;0.50;;;;;;;15.01;30.93;100431.13;5029756;28;20119;-82
2023/06/11 07:44:17;;;;;;;0.60;0.60;;;;;;;15.34;31.44;100429.63;5041760;28;20503;-83
2023/06/11 07:46:45;;;;;;;0.60;0.60;;;;;;;15.67;30.21;100414.50;5050615;28;20628;-82
2023/06/11 07:49:12;;;;;;;0.55;0.55;;;;;;;15.31;30.20;100425.50;5049220;28;20076;-82
2023/06/11 07:51:47;;;;;;;0.60;0.60;;;;;;;15.52;31.24;100439.50;5049082;28;20041;-82
2023/06/11 07:54:14;;;;;;;0.60;0.60;;;;;;;15.55;31.05;100420.00;5049186;28;20660;-80
2023/06/11 07:56:42;;;;;;;0.60;0.60;;;;;;;15.65;30.64;100431.09;5050367;28;20400;-83
2023/06/11 07:59:11;;;;;;;0.70;0.70;;;;;;;15.81;30.40;100429.50;5048941;28;20531;-82
2023/06/11 08:01:38;;;;;;;0.60;0.60;;;;;;;16.07;29.99;100422.59;5049910;28;20049;-83
2023/06/11 08:04:06;;;;;;;0.60;0.60;;;;;;;16.20;29.95;100421.44;5048577;28;20076;-82
2023/06/11 08:06:36;;;;;;;0.70;0.70;;;;;;;16.23;30.13;100419.06;5049975;28;20064;-82
2023/06/11 08:09:06;;;;;;;0.60;0.60;;;;;;;16.29;29.61;100409.06;5048656;28;20049;-82
2023/06/11 08:11:34;;;;;;;0.70;0.70;;;;;;;16.38;29.81;100423.09;5050359;28;20059;-82
2023/06/11 08:14:01;;;;;;;0.60;0.60;;;;;;;16.38;30.23;100413.03;5049453;28;20041;-82
2023/06/11 08:16:31;;;;;;;0.60;0.60;;;;;;;16.56;29.89;100422.84;5051383;28;20047;-81
2023/06/11 08:18:59;;;;;;;0.70;0.70;;;;;;;16.86;29.63;100417.06;5031934;28;20566;-82
2023/06/11 08:21:27;;;;;;;0.60;0.60;;;;;;;16.86;29.75;100402.56;5049055;28;20125;-81
2023/06/11 08:23:54;;;;;;;0.70;0.70;;;;;;;17.11;29.21;100432.09;5049925;28;20106;-82
2023/06/11 08:26:22;;;;;;;0.60;0.60;;;;;;;17.30;28.80;100402.59;5048795;28;20562;-82
2023/06/11 08:28:49;;;;;;;0.50;0.50;;;;;;;17.51;28.60;100423.56;5050104;28;20052;-82
2023/06/11 08:31:17;;;;;;;0.70;0.70;;;;;;;17.62;28.56;100412.75;5049880;28;20457;-81
2023/06/11 08:33:45;;;;;;;0.60;0.60;;;;;;;17.61;28.16;100414.66;5050490;28;20060;-82
2023/06/11 08:36:12;;;;;;;0.50;0.50;;;;;;;17.37;27.82;100392.31;5049794;28;20049;-82
2023/06/11 08:38:39;;;;;;;0.60;0.60;;;;;;;17.31;27.77;100412.41;5048859;28;20503;-82
2023/06/11 08:41:06;;;;;;;0.70;0.70;;;;;;;17.53;27.58;100412.41;5049449;28;20045;-82
2023/06/11 08:43:34;;;;;;;0.60;0.60;;;;;;;17.97;27.64;100401.41;5048775;28;20055;-83
2023/06/11 08:46:15;;;;;;;0.60;0.60;;;;;;;18.32;27.79;100402.78;5049681;28;20053;-82
2023/06/11 08:48:44;;;;;;;0.57;0.57;;;;;;;18.44;27.46;100362.44;5065078;28;20558;-82
2023/06/11 08:51:12;;;;;;;0.60;0.60;;;;;;;18.88;27.00;100370.34;5049767;28;20044;-82
2023/06/11 08:53:39;;;;;;;0.60;0.60;;;;;;;18.86;26.84;100369.78;5048235;28;20419;-83
2023/06/11 08:56:10;;;;;;;0.50;0.50;;;;;;;18.77;26.80;100372.22;5049577;28;20060;-82
2023/06/11 08:58:37;;;;;;;0.60;0.60;;;;;;;18.96;26.27;100390.91;5049941;28;20049;-82
2023/06/11 09:01:09;;;;;;;0.60;0.60;;;;;;;18.98;26.45;100375.03;5049708;28;20500;-83
2023/06/11 09:03:39;;;;;;;0.60;0.60;;;;;;;19.34;26.48;100378.72;5050349;28;20077;-83
2023/06/11 09:06:06;;;;;;;0.60;0.60;;;;;;;19.48;26.63;100377.13;5048663;28;20063;-82
2023/06/11 09:08:33;;;;;;;0.60;0.60;;;;;;;19.29;26.33;100373.22;5049840;28;20098;-83
2023/06/11 09:11:10;;;;;;;0.70;0.70;;;;;;;19.53;25.84;100386.47;5049594;28;20053;-82
2023/06/11 09:13:40;;;;;;;0.50;0.50;;;;;;;19.49;25.99;100373.28;5052493;28;20049;-83
2023/06/11 09:16:07;;;;;;;0.63;0.63;;;;;;;19.91;25.75;100387.91;5053286;28;20055;-83
2023/06/11 09:18:35;;;;;;;0.68;0.68;;;;;;;19.94;25.34;100365.44;5069068;28;20045;-81
2023/06/11 09:21:06;;;;;;;0.70;0.70;;;;;;;19.96;24.86;100340.53;5068088;28;20049;-82
2023/06/11 09:23:38;;;;;;;0.60;0.60;;;;;;;20.58;24.83;100350.31;5052353;28;20049;-82
2023/06/11 09:26:09;;;;;;;0.70;0.70;;;;;;;21.09;24.26;100352.06;5035387;28;20129;-82
2023/06/11 09:28:37;;;;;;;0.50;0.50;;;;;;;20.88;24.32;100337.59;5035575;28;20080;-82
2023/06/11 09:31:04;;;;;;;0.70;0.70;;;;;;;20.61;24.35;100357.16;5052009;28;20052;-82
2023/06/11 09:33:36;;;;;;;0.50;0.50;;;;;;;20.82;24.29;100336.81;5035839;28;20053;-82
2023/06/11 09:36:04;;;;;;;0.50;0.50;;;;;;;20.88;24.32;100343.09;5050095;28;20053;-82
2023/06/11 09:38:35;;;;;;;0.63;0.63;;;;;;;21.53;23.88;100356.81;5063066;28;20279;-82
2023/06/11 09:41:06;;;;;;;0.50;0.50;;;;;;;21.08;23.65;100332.03;5055636;28;20048;-82
2023/06/11 09:43:34;;;;;;;0.50;0.50;;;;;;;20.64;24.11;100326.47;5055483;28;20060;-83
2023/06/11 09:46:02;;;;;;;0.60;0.60;;;;;;;20.69;24.21;100330.00;5038356;28;20052;-83
2023/06/11 09:48:29;;;;;;;0.70;0.70;;;;;;;21.24;24.41;100315.47;5073249;28;20049;-83
2023/06/11 09:51:00;;;;;;;0.60;0.60;;;;;;;21.64;23.86;100341.88;5071139;28;20045;-82
2023/06/11 09:53:28;;;;;;;0.60;0.60;;;;;;;21.62;23.56;100317.47;5065461;28;20569;-82
2023/06/11 09:55:56;;;;;;;0.60;0.60;;;;;;;22.36;23.71;100344.03;5052860;28;20052;-83
2023/06/11 09:58:39;;;;;;;0.60;0.60;;;;;;;22.82;22.50;100325.09;5050486;28;20067;-82
2023/06/11 10:01:09;;;;;;;0.45;0.45;;;;;;;22.63;22.77;100321.47;5052471;28;20079;-83
2023/06/11 10:03:39;;;;;;;0.73;0.73;;;;;;;22.12;22.87;100344.78;5067813;28;20060;-81
2023/06/11 10:06:18;;;;;;;0.60;0.60;;;;;;;22.61;22.80;100331.94;5046794;28;20658;-83
2023/06/11 10:08:50;;;;;;;0.68;0.68;;;;;;;23.26;22.17;100340.50;5031856;28;20152;-85
2023/06/11 10:11:25;;;;;;;0.55;0.55;;;;;;;23.74;21.38;100314.75;5034471;28;20053;-86
2023/06/11 10:13:58;;;;;;;0.60;0.60;;;;;;;23.65;22.22;100342.16;5032321;28;20523;-84
2023/06/11 10:16:28;;;;;;;0.60;0.60;;;;;;;22.80;22.84;100354.84;5043355;28;20056;-86
2023/06/11 10:19:08;;;;;;;0.40;0.40;;;;;;;21.92;22.90;100325.72;5038293;28;20041;-84
2023/06/11 10:21:44;;;;;;;0.70;0.70;;;;;;;22.24;22.73;100349.94;5047592;28;20044;-82
2023/06/11 10:24:24;;;;;;;0.50;0.50;;;;;;;22.32;22.53;100316.31;5051906;28;20045;-86
2023/06/11 10:27:15;;;;;;;0.60;0.60;;;;;;;22.72;22.34;100325.22;5050444;28;20057;-83
2023/06/11 10:29:51;;;;;;;0.60;0.60;;;;;;;23.03;22.33;100320.19;5051271;28;20045;-85
2023/06/11 10:32:22;;;;;;;0.60;0.60;;;;;;;22.69;22.27;100325.81;5053557;28;20044;-83
2023/06/11 10:35:03;;;;;;;0.60;0.60;;;;;;;23.32;21.91;100303.53;5050949;28;20504;-85
2023/06/11 10:37:35;;;;;;;0.40;0.40;;;;;;;23.26;21.95;100290.13;5019203;28;20497;-83
2023/06/11 10:40:08;;;;;;;0.60;0.60;;;;;;;23.58;21.63;100325.19;5084292;28;20442;-84
2023/06/11 10:42:38;;;;;;;0.60;0.60;;;;;;;23.11;21.65;100285.66;5071110;28;20053;-84
2023/06/11 10:45:13;;;;;;;0.70;0.70;;;;;;;23.55;21.58;100320.28;5084412;28;20083;-83
2023/06/11 10:47:50;;;;;;;0.70;0.70;;;;;;;23.91;20.89;100301.25;5092002;28;20056;-84
2023/06/11 10:50:31;;;;;;;0.80;0.80;;;;;;;24.57;20.18;100273.56;5051117;28;20059;-85
2023/06/11 10:53:08;;;;;;;0.70;0.70;;;;;;;24.97;19.51;100279.38;5091875;28;20094;-82
2023/06/11 10:55:40;;;;;;;0.50;0.50;;;;;;;24.93;20.05;100306.75;5056644;28;20139;-82
2023/06/11 10:58:22;;;;;;;0.60;0.60;;;;;;;24.25;20.46;100305.59;5087334;28;20048;-83
2023/06/11 11:00:52;;;;;;;0.50;0.50;;;;;;;24.52;20.36;100298.50;5067478;28;20060;-82
2023/06/11 11:03:26;;;;;;;0.60;0.60;;;;;;;23.71;21.21;100285.84;5053585;28;20098;-82
2023/06/11 11:05:53;;;;;;;0.40;0.40;;;;;;;24.57;20.75;100263.34;5071759;28;20072;-82
2023/06/11 11:08:20;;;;;;;0.60;0.60;;;;;;;24.94;19.97;100274.44;5071411;28;20072;-82
2023/06/11 11:11:01;;;;;;;0.70;0.70;;;;;;;25.75;19.99;100293.84;5090719;28;20043;-81
2023/06/11 11:13:29;;;;;;;0.60;0.60;;;;;;;26.26;19.09;100283.44;5091009;28;20168;-82
2023/06/11 11:15:58;;;;;;;0.60;0.60;;;;;;;25.72;19.54;100277.88;5091415;28;20062;-82
2023/06/11 11:18:26;;;;;;;0.40;0.40;;;;;;;25.29;19.81;100294.94;5072703;28;20050;-82
2023/06/11 11:20:54;;;;;;;0.50;0.50;;;;;;;25.77;19.81;100276.94;5086673;28;20134;-82
2023/06/11 11:23:24;;;;;;;0.60;0.60;;;;;;;26.12;19.24;100278.00;5091105;28;20083;-81
2023/06/11 11:25:51;;;;;;;0.30;0.30;;;;;;;25.07;19.83;100271.66;5091103;28;20526;-81
2023/06/11 11:28:19;;;;;;;0.60;0.60;;;;;;;24.52;21.13;100273.69;5089718;28;20051;-82
2023/06/11 11:30:46;;;;;;;0.60;0.60;;;;;;;26.29;19.54;100285.56;5072514;28;20052;-83
2023/06/11 11:33:17;;;;;;;0.60;0.60;;;;;;;26.76;18.60;100255.44;5090630;28;20079;-82
2023/06/11 11:35:53;;;;;;;0.55;0.55;;;;;;;26.33;19.54;100284.59;5054349;28;20052;-82
2023/06/11 11:38:24;;;;;;;0.30;0.30;;;;;;;24.96;20.04;100273.00;5056612;28;20056;-82
2023/06/11 11:40:56;;;;;;;0.40;0.40;;;;;;;24.50;20.50;100285.00;5067927;28;20098;-81